SWA779 KTUS-KLAX
Flight info
| Callsign | SWA779 |
|---|---|
| Flight time | 1h 8m |
| Altitude | 32000 |
| Route | BURRO5 GBN J104 WLVRN ESTWD HLYWD1 |
| Aircraft | B738/M-SDE2E3FGHIRWXY/LB1 |
Departure
| Time | 2026-05-06 17:26 |
|---|---|
| Airport | Tucson International Airport (KTUS) |
Arrival
| Time | 2026-05-06 18:34 |
|---|---|
| Airport | Los Angeles International Airport (KLAX) |
| Time | Latitude | Longitude | Altitude | Speed | Heading |
|---|---|---|---|---|---|
| 2026-05-06 17:09 | 32.11887 | -110.93770 | 2602 ft | 0 kts | 59° |
| 2026-05-06 17:18 | 32.11886 | -110.93771 | 2602 ft | 2 kts | 59° |
| 2026-05-06 17:18 | 32.11873 | -110.93796 | 2602 ft | 4 kts | 59° |
| 2026-05-06 17:18 | 32.11862 | -110.93824 | 2602 ft | 4 kts | 82° |
| 2026-05-06 17:18 | 32.11864 | -110.93853 | 2602 ft | 4 kts | 122° |
| 2026-05-06 17:19 | 32.11873 | -110.93866 | 2602 ft | 1 kts | 135° |
| 2026-05-06 17:19 | 32.11874 | -110.93867 | 2602 ft | 1 kts | 135° |
| 2026-05-06 17:21 | 32.11865 | -110.93857 | 2602 ft | 5 kts | 135° |
| 2026-05-06 17:21 | 32.11816 | -110.93800 | 2601 ft | 13 kts | 140° |
| 2026-05-06 17:22 | 32.11740 | -110.93826 | 2602 ft | 13 kts | 253° |
| 2026-05-06 17:22 | 32.11793 | -110.93910 | 2603 ft | 13 kts | 317° |
| 2026-05-06 17:22 | 32.11837 | -110.93959 | 2604 ft | 13 kts | 315° |
| 2026-05-06 17:22 | 32.11899 | -110.94034 | 2604 ft | 13 kts | 314° |
| 2026-05-06 17:23 | 32.11966 | -110.94114 | 2604 ft | 14 kts | 315° |
| 2026-05-06 17:23 | 32.12033 | -110.94191 | 2607 ft | 13 kts | 316° |
| 2026-05-06 17:23 | 32.12103 | -110.94272 | 2608 ft | 16 kts | 315° |
| 2026-05-06 17:23 | 32.12189 | -110.94374 | 2606 ft | 19 kts | 315° |
| 2026-05-06 17:24 | 32.12288 | -110.94491 | 2606 ft | 20 kts | 315° |
| 2026-05-06 17:24 | 32.12390 | -110.94611 | 2602 ft | 21 kts | 315° |
| 2026-05-06 17:24 | 32.12405 | -110.94696 | 2603 ft | 10 kts | 226° |
| 2026-05-06 17:24 | 32.12355 | -110.94752 | 2604 ft | 10 kts | 224° |
| 2026-05-06 17:25 | 32.12299 | -110.94744 | 2603 ft | 9 kts | 135° |
| 2026-05-06 17:25 | 32.12284 | -110.94726 | 2604 ft | 6 kts | 135° |
| 2026-05-06 17:25 | 32.12084 | -110.94490 | 2609 ft | 80 kts | 135° |
| 2026-05-06 17:25 | 32.11508 | -110.93817 | 2606 ft | 150 kts | 135° |
| 2026-05-06 17:26 | 32.10662 | -110.92832 | 2991 ft | 180 kts | 135° |
| 2026-05-06 17:26 | 32.09756 | -110.91775 | 3941 ft | 186 kts | 135° |
| 2026-05-06 17:26 | 32.08779 | -110.90627 | 4433 ft | 210 kts | 133° |
| 2026-05-06 17:26 | 32.07716 | -110.89367 | 4790 ft | 230 kts | 132° |
| 2026-05-06 17:27 | 32.06531 | -110.87970 | 5220 ft | 247 kts | 134° |
| 2026-05-06 17:27 | 32.05253 | -110.86477 | 5602 ft | 270 kts | 134° |
| 2026-05-06 17:27 | 32.03896 | -110.84892 | 6470 ft | 273 kts | 133° |
| 2026-05-06 17:27 | 32.02545 | -110.83314 | 7362 ft | 277 kts | 134° |
| 2026-05-06 17:28 | 32.01015 | -110.81912 | 8135 ft | 284 kts | 156° |
| 2026-05-06 17:28 | 31.99070 | -110.81615 | 9030 ft | 287 kts | 191° |
| 2026-05-06 17:28 | 31.97215 | -110.82457 | 9955 ft | 287 kts | 211° |
| 2026-05-06 17:28 | 31.95536 | -110.83810 | 10522 ft | 303 kts | 217° |
| 2026-05-06 17:29 | 31.93830 | -110.85440 | 10713 ft | 328 kts | 226° |
| 2026-05-06 17:29 | 31.92663 | -110.87767 | 11279 ft | 337 kts | 256° |
| 2026-05-06 17:29 | 31.92528 | -110.90471 | 12168 ft | 338 kts | 272° |
| 2026-05-06 17:29 | 31.92583 | -110.93265 | 12884 ft | 345 kts | 274° |
| 2026-05-06 17:30 | 31.93184 | -110.95984 | 13835 ft | 347 kts | 298° |
| 2026-05-06 17:30 | 31.94635 | -110.98281 | 14655 ft | 351 kts | 307° |
| 2026-05-06 17:30 | 31.96138 | -111.00562 | 15464 ft | 354 kts | 304° |
| 2026-05-06 17:30 | 31.97604 | -111.02899 | 16327 ft | 356 kts | 303° |
| 2026-05-06 17:31 | 31.99067 | -111.05263 | 17155 ft | 358 kts | 303° |
| 2026-05-06 17:31 | 32.00535 | -111.07655 | 18012 ft | 361 kts | 302° |
| 2026-05-06 17:31 | 32.02013 | -111.10066 | 18769 ft | 364 kts | 302° |
| 2026-05-06 17:31 | 32.03500 | -111.12488 | 19482 ft | 366 kts | 301° |
| 2026-05-06 17:32 | 32.04996 | -111.14928 | 20198 ft | 369 kts | 301° |
| 2026-05-06 17:32 | 32.06509 | -111.17398 | 20844 ft | 373 kts | 301° |
| 2026-05-06 17:32 | 32.08039 | -111.19889 | 21541 ft | 376 kts | 302° |
| 2026-05-06 17:32 | 32.09706 | -111.22287 | 22226 ft | 381 kts | 306° |
| 2026-05-06 17:33 | 32.11512 | -111.24610 | 22881 ft | 386 kts | 308° |
| 2026-05-06 17:33 | 32.13329 | -111.26893 | 23541 ft | 388 kts | 307° |
| 2026-05-06 17:33 | 32.15178 | -111.29232 | 24091 ft | 391 kts | 307° |
| 2026-05-06 17:33 | 32.17024 | -111.31598 | 24606 ft | 393 kts | 306° |
| 2026-05-06 17:34 | 32.18870 | -111.33989 | 25122 ft | 395 kts | 305° |
| 2026-05-06 17:34 | 32.20724 | -111.36401 | 25614 ft | 398 kts | 305° |
| 2026-05-06 17:34 | 32.22583 | -111.38844 | 26090 ft | 401 kts | 304° |
| 2026-05-06 17:34 | 32.24456 | -111.41299 | 26604 ft | 403 kts | 304° |
| 2026-05-06 17:35 | 32.26336 | -111.43763 | 27107 ft | 404 kts | 304° |
| 2026-05-06 17:35 | 32.28207 | -111.46232 | 27771 ft | 399 kts | 302° |
| 2026-05-06 17:35 | 32.29879 | -111.48805 | 28452 ft | 391 kts | 296° |
| 2026-05-06 17:36 | 32.32824 | -111.54081 | 29738 ft | 387 kts | 295° |
| 2026-05-06 17:36 | 32.34284 | -111.56783 | 30119 ft | 391 kts | 295° |
| 2026-05-06 17:36 | 32.35761 | -111.59494 | 30647 ft | 390 kts | 295° |
| 2026-05-06 17:36 | 32.37236 | -111.62167 | 31285 ft | 385 kts | 295° |
| 2026-05-06 17:37 | 32.38707 | -111.64812 | 31816 ft | 384 kts | 294° |
| 2026-05-06 17:37 | 32.40183 | -111.67457 | 32000 ft | 385 kts | 294° |
| 2026-05-06 17:37 | 32.43131 | -111.72722 | 32033 ft | 385 kts | 294° |
| 2026-05-06 17:38 | 32.46101 | -111.78023 | 32040 ft | 387 kts | 294° |
| 2026-05-06 17:38 | 32.49063 | -111.83313 | 32026 ft | 389 kts | 295° |
| 2026-05-06 17:39 | 32.52064 | -111.88662 | 32023 ft | 392 kts | 297° |
| 2026-05-06 17:39 | 32.55091 | -111.94088 | 32024 ft | 396 kts | 297° |
| 2026-05-06 17:40 | 32.58140 | -111.99563 | 32034 ft | 399 kts | 297° |
| 2026-05-06 17:40 | 32.61207 | -112.05071 | 32029 ft | 400 kts | 297° |
| 2026-05-06 17:41 | 32.64272 | -112.10581 | 32025 ft | 399 kts | 297° |
| 2026-05-06 17:41 | 32.67322 | -112.16072 | 32021 ft | 398 kts | 297° |
| 2026-05-06 17:42 | 32.70341 | -112.21518 | 32050 ft | 397 kts | 298° |
| 2026-05-06 17:42 | 32.73383 | -112.27014 | 32044 ft | 399 kts | 298° |
| 2026-05-06 17:43 | 32.76439 | -112.32544 | 32039 ft | 401 kts | 298° |
| 2026-05-06 17:43 | 32.79506 | -112.38101 | 32042 ft | 403 kts | 298° |
| 2026-05-06 17:44 | 32.82582 | -112.43683 | 32039 ft | 404 kts | 298° |
| 2026-05-06 17:44 | 32.85665 | -112.49284 | 32047 ft | 405 kts | 299° |
| 2026-05-06 17:45 | 32.88750 | -112.54901 | 32093 ft | 406 kts | 300° |
| 2026-05-06 17:45 | 32.91850 | -112.60551 | 32102 ft | 408 kts | 301° |
| 2026-05-06 17:46 | 32.94943 | -112.66195 | 32095 ft | 411 kts | 301° |
| 2026-05-06 17:46 | 32.98467 | -112.71595 | 32097 ft | 415 kts | 310° |
| 2026-05-06 17:47 | 33.02423 | -112.76615 | 32081 ft | 416 kts | 311° |
| 2026-05-06 17:47 | 33.06370 | -112.81658 | 32038 ft | 416 kts | 311° |
| 2026-05-06 17:48 | 33.10269 | -112.86758 | 32038 ft | 416 kts | 313° |
| 2026-05-06 17:48 | 33.14147 | -112.91884 | 32049 ft | 416 kts | 313° |
| 2026-05-06 17:49 | 33.18024 | -112.97029 | 32039 ft | 417 kts | 312° |
| 2026-05-06 17:49 | 33.21903 | -113.02184 | 32043 ft | 417 kts | 312° |
| 2026-05-06 17:50 | 33.25789 | -113.07353 | 32034 ft | 418 kts | 312° |
| 2026-05-06 17:50 | 33.29641 | -113.12491 | 32036 ft | 417 kts | 314° |
| 2026-05-06 17:51 | 33.33514 | -113.17654 | 32036 ft | 417 kts | 314° |
| 2026-05-06 17:51 | 33.37391 | -113.22831 | 32035 ft | 417 kts | 314° |
| 2026-05-06 17:52 | 33.41264 | -113.28013 | 32037 ft | 417 kts | 314° |
| 2026-05-06 17:52 | 33.45131 | -113.33194 | 32034 ft | 417 kts | 314° |
| 2026-05-06 17:53 | 33.48991 | -113.38384 | 32040 ft | 417 kts | 314° |
| 2026-05-06 17:53 | 33.52812 | -113.43544 | 32032 ft | 417 kts | 315° |
| 2026-05-06 17:54 | 33.56660 | -113.48745 | 31987 ft | 416 kts | 315° |
| 2026-05-06 17:54 | 33.60508 | -113.53941 | 31991 ft | 416 kts | 315° |
| 2026-05-06 17:55 | 33.64357 | -113.59127 | 31991 ft | 416 kts | 315° |
| 2026-05-06 17:55 | 33.68210 | -113.64328 | 31995 ft | 416 kts | 315° |
| 2026-05-06 17:56 | 33.72036 | -113.69501 | 32002 ft | 417 kts | 315° |
| 2026-05-06 17:56 | 33.75880 | -113.74708 | 32042 ft | 417 kts | 315° |
| 2026-05-06 17:57 | 33.79641 | -113.80023 | 32030 ft | 420 kts | 308° |
| 2026-05-06 17:57 | 33.81068 | -113.83105 | 32042 ft | 425 kts | 297° |
| 2026-05-06 17:57 | 33.82163 | -113.86415 | 32052 ft | 426 kts | 295° |
| 2026-05-06 17:58 | 33.84334 | -113.93056 | 32028 ft | 427 kts | 296° |
| 2026-05-06 17:58 | 33.86555 | -113.99686 | 32047 ft | 427 kts | 296° |
| 2026-05-06 17:59 | 33.88798 | -114.06333 | 32046 ft | 429 kts | 296° |
| 2026-05-06 17:59 | 33.90961 | -114.13053 | 32031 ft | 433 kts | 291° |
| 2026-05-06 18:00 | 33.92251 | -114.20182 | 32048 ft | 437 kts | 284° |
| 2026-05-06 18:00 | 33.93311 | -114.27370 | 32045 ft | 438 kts | 284° |
| 2026-05-06 18:01 | 33.94449 | -114.34568 | 32036 ft | 437 kts | 285° |
| 2026-05-06 18:01 | 33.95643 | -114.41747 | 32028 ft | 437 kts | 286° |
| 2026-05-06 18:02 | 33.96855 | -114.48931 | 32032 ft | 437 kts | 287° |
| 2026-05-06 18:02 | 33.98063 | -114.56117 | 32049 ft | 438 kts | 287° |
| 2026-05-06 18:03 | 33.99267 | -114.63327 | 32055 ft | 439 kts | 287° |
| 2026-05-06 18:03 | 34.00460 | -114.70507 | 32038 ft | 440 kts | 287° |
| 2026-05-06 18:04 | 34.01656 | -114.77733 | 32042 ft | 440 kts | 287° |
| 2026-05-06 18:04 | 34.02849 | -114.84968 | 32039 ft | 440 kts | 287° |
| 2026-05-06 18:05 | 34.04038 | -114.92203 | 32046 ft | 440 kts | 286° |
| 2026-05-06 18:05 | 34.05223 | -114.99442 | 32031 ft | 440 kts | 286° |
| 2026-05-06 18:06 | 34.06404 | -115.06678 | 32043 ft | 439 kts | 287° |
| 2026-05-06 18:06 | 34.07580 | -115.13912 | 32038 ft | 439 kts | 287° |
| 2026-05-06 18:07 | 34.08753 | -115.21143 | 32041 ft | 439 kts | 287° |
| 2026-05-06 18:07 | 34.09914 | -115.28335 | 32040 ft | 439 kts | 287° |
| 2026-05-06 18:08 | 34.11077 | -115.35571 | 32040 ft | 440 kts | 287° |
| 2026-05-06 18:08 | 34.12239 | -115.42824 | 32039 ft | 440 kts | 287° |
| 2026-05-06 18:09 | 34.13397 | -115.50087 | 32034 ft | 441 kts | 287° |
| 2026-05-06 18:09 | 34.14544 | -115.57310 | 32046 ft | 441 kts | 287° |
| 2026-05-06 18:10 | 34.15695 | -115.64579 | 32030 ft | 441 kts | 287° |
| 2026-05-06 18:10 | 34.16327 | -115.71964 | 32047 ft | 452 kts | 268° |
| 2026-05-06 18:11 | 34.15584 | -115.78244 | 32061 ft | 454 kts | 266° |
| 2026-05-06 18:11 | 34.14632 | -115.87034 | 32085 ft | 453 kts | 268° |
| 2026-05-06 18:12 | 34.13902 | -115.94594 | 32105 ft | 453 kts | 268° |
| 2026-05-06 18:12 | 34.13171 | -116.02057 | 31896 ft | 441 kts | 268° |
| 2026-05-06 18:13 | 34.12812 | -116.05699 | 31651 ft | 433 kts | 268° |
| 2026-05-06 18:13 | 34.12577 | -116.08092 | 31412 ft | 431 kts | 268° |
| 2026-05-06 18:13 | 34.12225 | -116.11677 | 31077 ft | 428 kts | 268° |
| 2026-05-06 18:13 | 34.11875 | -116.15239 | 30733 ft | 425 kts | 268° |
| 2026-05-06 18:14 | 34.11527 | -116.18769 | 30394 ft | 423 kts | 268° |
| 2026-05-06 18:14 | 34.11179 | -116.22284 | 30015 ft | 420 kts | 268° |
| 2026-05-06 18:14 | 34.10833 | -116.25770 | 29556 ft | 417 kts | 268° |
| 2026-05-06 18:14 | 34.10487 | -116.29226 | 29180 ft | 413 kts | 268° |
| 2026-05-06 18:15 | 34.10136 | -116.32651 | 28822 ft | 409 kts | 267° |
| 2026-05-06 18:15 | 34.09773 | -116.36048 | 28454 ft | 406 kts | 267° |
| 2026-05-06 18:15 | 34.09410 | -116.39413 | 28120 ft | 402 kts | 267° |
| 2026-05-06 18:15 | 34.09054 | -116.42703 | 27766 ft | 399 kts | 267° |
| 2026-05-06 18:16 | 34.08698 | -116.46011 | 27409 ft | 396 kts | 267° |
| 2026-05-06 18:16 | 34.08344 | -116.49304 | 27057 ft | 394 kts | 267° |
| 2026-05-06 18:16 | 34.07988 | -116.52629 | 26739 ft | 409 kts | 267° |
| 2026-05-06 18:16 | 34.07615 | -116.56135 | 26391 ft | 434 kts | 266° |
| 2026-05-06 18:17 | 34.07224 | -116.59757 | 25947 ft | 441 kts | 266° |
| 2026-05-06 18:17 | 34.06853 | -116.63472 | 25404 ft | 439 kts | 267° |
| 2026-05-06 18:17 | 34.06522 | -116.67106 | 24920 ft | 434 kts | 267° |
| 2026-05-06 18:17 | 34.06203 | -116.70672 | 24437 ft | 431 kts | 267° |
| 2026-05-06 18:18 | 34.05878 | -116.74251 | 23947 ft | 428 kts | 267° |
| 2026-05-06 18:18 | 34.05551 | -116.77809 | 23421 ft | 426 kts | 267° |
| 2026-05-06 18:18 | 34.05220 | -116.81358 | 22858 ft | 423 kts | 266° |
| 2026-05-06 18:18 | 34.04889 | -116.84867 | 22369 ft | 419 kts | 266° |
| 2026-05-06 18:19 | 34.04562 | -116.88352 | 21872 ft | 415 kts | 267° |
| 2026-05-06 18:19 | 34.04188 | -116.91776 | 21418 ft | 410 kts | 264° |
| 2026-05-06 18:19 | 34.03736 | -116.95110 | 20959 ft | 405 kts | 263° |
| 2026-05-06 18:19 | 34.03279 | -116.98444 | 20509 ft | 402 kts | 263° |
| 2026-05-06 18:20 | 34.02838 | -117.01760 | 20052 ft | 399 kts | 264° |
| 2026-05-06 18:20 | 34.02416 | -117.05059 | 19593 ft | 396 kts | 265° |
| 2026-05-06 18:20 | 34.02028 | -117.08330 | 19150 ft | 393 kts | 265° |
| 2026-05-06 18:20 | 34.01651 | -117.11581 | 18715 ft | 390 kts | 265° |
| 2026-05-06 18:21 | 34.01275 | -117.14817 | 18231 ft | 389 kts | 265° |
| 2026-05-06 18:21 | 34.00896 | -117.18029 | 17737 ft | 386 kts | 265° |
| 2026-05-06 18:21 | 34.00515 | -117.21223 | 17287 ft | 384 kts | 265° |
| 2026-05-06 18:21 | 34.00135 | -117.24402 | 16778 ft | 382 kts | 265° |
| 2026-05-06 18:22 | 33.99758 | -117.27533 | 16317 ft | 372 kts | 264° |
| 2026-05-06 18:22 | 33.99391 | -117.30577 | 15879 ft | 362 kts | 265° |
| 2026-05-06 18:22 | 33.99039 | -117.33537 | 15447 ft | 352 kts | 265° |
| 2026-05-06 18:22 | 33.98700 | -117.36430 | 15072 ft | 347 kts | 265° |
| 2026-05-06 18:23 | 33.98366 | -117.39297 | 14680 ft | 345 kts | 265° |
| 2026-05-06 18:23 | 33.98032 | -117.42155 | 14296 ft | 344 kts | 265° |
| 2026-05-06 18:23 | 33.97700 | -117.44975 | 13898 ft | 345 kts | 265° |
| 2026-05-06 18:23 | 33.97372 | -117.47831 | 13445 ft | 343 kts | 268° |
| 2026-05-06 18:24 | 33.97549 | -117.50638 | 13016 ft | 332 kts | 291° |
| 2026-05-06 18:24 | 33.98291 | -117.53233 | 12666 ft | 327 kts | 291° |
| 2026-05-06 18:24 | 33.98933 | -117.55857 | 12283 ft | 325 kts | 289° |
| 2026-05-06 18:24 | 33.99538 | -117.58472 | 11899 ft | 323 kts | 289° |
| 2026-05-06 18:25 | 34.00140 | -117.61077 | 11538 ft | 322 kts | 289° |
| 2026-05-06 18:25 | 34.00745 | -117.63666 | 11176 ft | 320 kts | 289° |
| 2026-05-06 18:25 | 34.01349 | -117.66237 | 10810 ft | 318 kts | 289° |
| 2026-05-06 18:25 | 34.01950 | -117.68803 | 10453 ft | 318 kts | 288° |
| 2026-05-06 18:26 | 34.02187 | -117.71454 | 10072 ft | 323 kts | 267° |
| 2026-05-06 18:26 | 34.01831 | -117.74127 | 9705 ft | 322 kts | 263° |
| 2026-05-06 18:26 | 34.01524 | -117.76800 | 9300 ft | 321 kts | 265° |
| 2026-05-06 18:26 | 34.01261 | -117.79463 | 8925 ft | 319 kts | 265° |
| 2026-05-06 18:27 | 34.01006 | -117.82111 | 8547 ft | 315 kts | 265° |
| 2026-05-06 18:27 | 34.00756 | -117.84693 | 8180 ft | 308 kts | 265° |
| 2026-05-06 18:27 | 34.00508 | -117.87243 | 7835 ft | 305 kts | 265° |
| 2026-05-06 18:27 | 34.00261 | -117.89771 | 7482 ft | 303 kts | 265° |
| 2026-05-06 18:28 | 34.00015 | -117.92278 | 7144 ft | 300 kts | 265° |
| 2026-05-06 18:28 | 33.99772 | -117.94771 | 6808 ft | 299 kts | 265° |
| 2026-05-06 18:28 | 33.99529 | -117.97244 | 6459 ft | 295 kts | 265° |
| 2026-05-06 18:28 | 33.99290 | -117.99668 | 6102 ft | 287 kts | 265° |
| 2026-05-06 18:29 | 33.99055 | -118.02038 | 5760 ft | 284 kts | 264° |
| 2026-05-06 18:29 | 33.98818 | -118.04399 | 5444 ft | 283 kts | 265° |
| 2026-05-06 18:29 | 33.98587 | -118.06724 | 5118 ft | 283 kts | 264° |
| 2026-05-06 18:29 | 33.98353 | -118.09069 | 4778 ft | 280 kts | 265° |
| 2026-05-06 18:30 | 33.98123 | -118.11369 | 4442 ft | 273 kts | 265° |
| 2026-05-06 18:30 | 33.97899 | -118.13606 | 4110 ft | 265 kts | 265° |
| 2026-05-06 18:30 | 33.97689 | -118.15778 | 3846 ft | 257 kts | 265° |
| 2026-05-06 18:30 | 33.97501 | -118.17903 | 3534 ft | 252 kts | 264° |
| 2026-05-06 18:31 | 33.97295 | -118.19984 | 3253 ft | 246 kts | 264° |
| 2026-05-06 18:31 | 33.97090 | -118.21967 | 3103 ft | 235 kts | 263° |
| 2026-05-06 18:31 | 33.96887 | -118.23905 | 2811 ft | 231 kts | 263° |
| 2026-05-06 18:31 | 33.96690 | -118.25808 | 2514 ft | 228 kts | 262° |
| 2026-05-06 18:32 | 33.96495 | -118.27684 | 2204 ft | 225 kts | 262° |
| 2026-05-06 18:32 | 33.96304 | -118.29546 | 1937 ft | 222 kts | 262° |
| 2026-05-06 18:32 | 33.96115 | -118.31372 | 1627 ft | 217 kts | 262° |
| 2026-05-06 18:32 | 33.95934 | -118.33138 | 1348 ft | 209 kts | 262° |
| 2026-05-06 18:33 | 33.95763 | -118.34803 | 1043 ft | 193 kts | 262° |
| 2026-05-06 18:33 | 33.95605 | -118.36336 | 801 ft | 175 kts | 262° |
| 2026-05-06 18:33 | 33.95463 | -118.37724 | 569 ft | 160 kts | 262° |
| 2026-05-06 18:33 | 33.95334 | -118.38998 | 372 ft | 147 kts | 262° |
| 2026-05-06 18:34 | 33.95211 | -118.40184 | 183 ft | 141 kts | 263° |
| 2026-05-06 18:34 | 33.95095 | -118.41300 | 125 ft | 123 kts | 263° |
| 2026-05-06 18:34 | 33.95014 | -118.42114 | 125 ft | 66 kts | 263° |
| 2026-05-06 18:34 | 33.94953 | -118.42502 | 124 ft | 42 kts | 243° |
| 2026-05-06 18:35 | 33.94829 | -118.42692 | 125 ft | 23 kts | 214° |
| 2026-05-06 18:35 | 33.94726 | -118.42773 | 125 ft | 13 kts | 199° |
| 2026-05-06 18:35 | 33.94633 | -118.42778 | 121 ft | 14 kts | 175° |
| 2026-05-06 18:35 | 33.94538 | -118.42764 | 122 ft | 14 kts | 175° |
| 2026-05-06 18:36 | 33.94449 | -118.42771 | 123 ft | 6 kts | 229° |
| 2026-05-06 18:36 | 33.94474 | -118.42793 | 122 ft | 6 kts | 15° |
| 2026-05-06 18:36 | 33.94524 | -118.42777 | 122 ft | 9 kts | 10° |
| 2026-05-06 18:36 | 33.94599 | -118.42764 | 122 ft | 13 kts | 24° |
| 2026-05-06 18:37 | 33.94641 | -118.42655 | 125 ft | 18 kts | 83° |
| 2026-05-06 18:37 | 33.94658 | -118.42489 | 123 ft | 22 kts | 83° |
| 2026-05-06 18:37 | 33.94673 | -118.42341 | 125 ft | 15 kts | 83° |
| 2026-05-06 18:37 | 33.94686 | -118.42211 | 123 ft | 16 kts | 83° |
| 2026-05-06 18:38 | 33.94699 | -118.42083 | 125 ft | 15 kts | 83° |
| 2026-05-06 18:38 | 33.94711 | -118.41957 | 125 ft | 15 kts | 83° |
| 2026-05-06 18:38 | 33.94702 | -118.41838 | 125 ft | 15 kts | 137° |
| 2026-05-06 18:38 | 33.94651 | -118.41752 | 125 ft | 15 kts | 80° |
| 2026-05-06 18:39 | 33.94664 | -118.41630 | 123 ft | 14 kts | 83° |
| 2026-05-06 18:39 | 33.94674 | -118.41512 | 121 ft | 14 kts | 84° |
| 2026-05-06 18:39 | 33.94684 | -118.41388 | 125 ft | 15 kts | 84° |
| 2026-05-06 18:40 | 33.94695 | -118.41269 | 124 ft | 4 kts | 82° |
| 2026-05-06 18:40 | 33.94703 | -118.41231 | 123 ft | 6 kts | 73° |
| 2026-05-06 18:40 | 33.94721 | -118.41170 | 122 ft | 10 kts | 71° |
| 2026-05-06 18:40 | 33.94733 | -118.41072 | 122 ft | 14 kts | 86° |
| 2026-05-06 18:41 | 33.94747 | -118.40944 | 123 ft | 17 kts | 81° |
| 2026-05-06 18:41 | 33.94764 | -118.40793 | 123 ft | 19 kts | 83° |
| 2026-05-06 18:41 | 33.94780 | -118.40633 | 125 ft | 19 kts | 83° |
| 2026-05-06 18:41 | 33.94797 | -118.40468 | 125 ft | 21 kts | 83° |
| 2026-05-06 18:42 | 33.94815 | -118.40303 | 125 ft | 18 kts | 78° |
| 2026-05-06 18:42 | 33.94835 | -118.40171 | 123 ft | 10 kts | 81° |
| 2026-05-06 18:42 | 33.94848 | -118.40092 | 122 ft | 10 kts | 80° |
| 2026-05-06 18:42 | 33.94834 | -118.40016 | 123 ft | 10 kts | 140° |
| 2026-05-06 18:43 | 33.94769 | -118.40010 | 122 ft | 10 kts | 184° |
| 2026-05-06 18:43 | 33.94701 | -118.40013 | 123 ft | 10 kts | 179° |
| 2026-05-06 18:43 | 33.94652 | -118.40045 | 123 ft | 6 kts | 264° |
| 2026-05-06 18:43 | 33.94655 | -118.40061 | 123 ft | 0 kts | 285° |